createdAt,value
2023-04-02T00:00:11.316Z,84.22
2023-04-02T00:02:50.869Z,84.11
2023-04-02T00:05:18.022Z,85.12
2023-04-02T00:07:48.811Z,84.77
2023-04-02T00:10:33.829Z,85.46
2023-04-02T00:13:25.581Z,85.22
2023-04-02T00:15:57.654Z,85.03
2023-04-02T00:18:25.304Z,85.35
2023-04-02T00:21:34.807Z,85.34
2023-04-02T00:24:08.362Z,85.17
2023-04-02T00:26:42.377Z,85.60
2023-04-02T00:29:12.513Z,85.16
2023-04-02T00:31:42.974Z,86.37
2023-04-02T00:34:17.730Z,85.69
2023-04-02T00:36:44.368Z,86.17
2023-04-02T00:39:18.277Z,85.82
2023-04-02T00:41:46.902Z,84.96
2023-04-02T00:44:15.833Z,84.23
2023-04-02T00:46:48.311Z,84.16
2023-04-02T00:49:36.449Z,84.73
2023-04-02T00:52:06.804Z,84.54
2023-04-02T00:54:41.639Z,84.44
2023-04-02T00:57:16.403Z,84.46
2023-04-02T00:59:55.066Z,84.32
2023-04-02T01:02:31.579Z,84.80
2023-04-02T01:05:19.575Z,84.72
2023-04-02T01:08:02.672Z,84.58
2023-04-02T01:10:42.857Z,84.96
2023-04-02T01:13:27.456Z,84.43
2023-04-02T01:16:01.426Z,84.99
2023-04-02T01:18:50.802Z,84.75
2023-04-02T01:21:42.432Z,85.64
2023-04-02T01:24:15.829Z,85.69
2023-04-02T01:26:51.044Z,85.28
2023-04-02T01:29:23.405Z,84.54
2023-04-02T01:31:52.133Z,85.00
2023-04-02T01:34:22.914Z,83.74
2023-04-02T01:37:17.812Z,83.74
2023-04-02T01:40:17.719Z,85.02
2023-04-02T01:43:21.378Z,83.99
2023-04-02T01:45:48.189Z,84.61
2023-04-02T01:48:19.748Z,84.73
2023-04-02T01:50:49.813Z,84.41
2023-04-02T01:53:18.809Z,84.52
2023-04-02T01:55:49.769Z,84.80
2023-04-02T01:58:24.009Z,84.44
2023-04-02T02:00:59.575Z,84.92
2023-04-02T02:03:26.294Z,84.58
2023-04-02T02:05:53.094Z,85.59
2023-04-02T02:08:34.361Z,85.26
2023-04-02T02:11:02.100Z,84.69
2023-04-02T02:13:28.494Z,84.21
2023-04-02T02:15:58.747Z,83.88
2023-04-02T02:18:26.155Z,82.99
2023-04-02T02:20:53.083Z,83.69
2023-04-02T02:23:21.222Z,83.29
2023-04-02T02:25:48.176Z,83.40
2023-04-02T02:28:29.338Z,83.11
2023-04-02T02:31:02.001Z,83.05
2023-04-02T02:33:38.658Z,83.62
2023-04-02T02:36:16.400Z,83.47
2023-04-02T02:39:01.028Z,83.97
2023-04-02T02:41:39.809Z,84.47
2023-04-02T02:44:09.113Z,83.90
2023-04-02T02:46:49.796Z,83.11
2023-04-02T02:49:21.954Z,84.02
2023-04-02T02:52:12.893Z,84.48
2023-04-02T02:54:43.925Z,83.98
2023-04-02T02:57:16.013Z,84.85
2023-04-02T02:59:43.094Z,84.79
2023-04-02T03:02:09.679Z,85.40
2023-04-02T03:04:36.298Z,84.75
2023-04-02T03:07:05.963Z,85.37
2023-04-02T03:10:09.860Z,83.87
2023-04-02T03:12:51.307Z,84.07
2023-04-02T03:15:41.069Z,85.13
2023-04-02T03:18:14.652Z,83.92
2023-04-02T03:20:48.644Z,83.90
2023-04-02T03:23:24.697Z,84.16
2023-04-02T03:26:17.822Z,83.75
2023-04-02T03:28:50.434Z,83.35
2023-04-02T03:31:31.308Z,84.12
2023-04-02T03:34:23.654Z,84.17
2023-04-02T03:36:57.915Z,83.27
2023-04-02T03:39:44.594Z,83.25
2023-04-02T03:42:26.054Z,83.04
2023-04-02T03:44:59.831Z,83.26
2023-04-02T03:48:01.667Z,83.07
2023-04-02T03:50:34.338Z,82.94
2023-04-02T03:53:02.694Z,82.91
2023-04-02T03:55:33.719Z,83.22
2023-04-02T03:58:06.231Z,83.11
2023-04-02T04:00:44.705Z,83.10
2023-04-02T04:03:16.116Z,82.54
2023-04-02T04:05:52.857Z,83.42
2023-04-02T04:08:26.174Z,82.47
2023-04-02T04:10:55.934Z,83.05
2023-04-02T04:13:36.277Z,82.67
2023-04-02T04:16:08.384Z,82.78
2023-04-02T04:18:47.576Z,82.95
2023-04-02T04:21:29.731Z,82.92
2023-04-02T04:24:03.882Z,83.86
2023-04-02T04:26:54.941Z,84.02
2023-04-02T04:29:32.386Z,83.70
2023-04-02T04:32:14.820Z,83.29
2023-04-02T04:34:51.575Z,83.62
2023-04-02T04:37:25.155Z,84.43
2023-04-02T04:40:05.325Z,83.33
2023-04-02T04:42:34.929Z,83.80
2023-04-02T04:45:23.114Z,84.30
2023-04-02T04:48:08.197Z,84.02
2023-04-02T04:50:47.634Z,84.28
2023-04-02T04:53:16.392Z,84.29
2023-04-02T04:55:44.365Z,83.92
2023-04-02T04:58:37.269Z,84.40
2023-04-02T05:01:25.688Z,83.62
2023-04-02T05:03:59.533Z,84.21
2023-04-02T05:06:55.117Z,83.59
2023-04-02T05:09:32.429Z,84.14
2023-04-02T05:12:17.996Z,83.45
2023-04-02T05:15:08.598Z,83.52
2023-04-02T05:17:42.416Z,83.51
2023-04-02T05:20:20.444Z,83.01
2023-04-02T05:22:57.327Z,83.06
2023-04-02T05:25:29.056Z,83.82
2023-04-02T05:28:07.627Z,84.25
2023-04-02T05:30:56.307Z,84.42
2023-04-02T05:33:31.017Z,84.28
2023-04-02T05:36:11.654Z,83.40
2023-04-02T05:38:44.262Z,84.12
2023-04-02T05:41:27.069Z,83.10
2023-04-02T05:44:05.501Z,83.39
2023-04-02T05:46:36.907Z,83.76
2023-04-02T05:49:07.165Z,83.93
2023-04-02T05:51:42.832Z,83.60
2023-04-02T05:54:44.902Z,84.05
2023-04-02T05:57:20.548Z,84.08
2023-04-02T05:59:56.897Z,83.75
2023-04-02T06:02:52.921Z,84.60
2023-04-02T06:05:25.187Z,84.09
2023-04-02T06:07:59.366Z,84.49
2023-04-02T06:10:35.184Z,83.76
2023-04-02T06:13:08.731Z,83.36
2023-04-02T06:15:37.904Z,83.13
2023-04-02T06:18:24.308Z,82.75
2023-04-02T06:20:51.535Z,83.36
2023-04-02T06:23:21.394Z,82.65
2023-04-02T06:26:16.698Z,81.83
2023-04-02T06:28:47.893Z,82.21
2023-04-02T06:31:56.090Z,81.43
2023-04-02T06:34:25.838Z,82.19
2023-04-02T06:36:57.259Z,80.83
2023-04-02T06:39:26.039Z,80.91
2023-04-02T06:42:13.190Z,81.18
2023-04-02T06:44:39.899Z,81.12
2023-04-02T06:47:11.398Z,81.54
2023-04-02T06:49:42.764Z,80.32
2023-04-02T06:52:23.082Z,80.69
2023-04-02T06:54:49.477Z,80.03
2023-04-02T06:57:16.159Z,80.21
2023-04-02T06:59:42.603Z,80.06
2023-04-02T07:02:33.401Z,79.84
2023-04-02T07:05:11.561Z,80.06
2023-04-02T07:07:38.015Z,80.23
2023-04-02T07:10:04.868Z,80.36
2023-04-02T07:12:31.147Z,79.51
2023-04-02T07:14:57.432Z,79.74
2023-04-02T07:17:23.847Z,79.17
2023-04-02T07:19:50.265Z,79.55
2023-04-02T07:22:18.118Z,79.43
2023-04-02T07:24:45.826Z,78.74
2023-04-02T07:27:13.362Z,78.97
2023-04-02T07:29:42.774Z,77.95
2023-04-02T07:32:10.612Z,77.46
2023-04-02T07:34:37.963Z,77.89
2023-04-02T07:37:04.601Z,77.89
2023-04-02T07:39:30.997Z,77.30
2023-04-02T07:41:59.930Z,78.29
2023-04-02T07:44:26.263Z,77.58
2023-04-02T07:46:53.251Z,78.56
2023-04-02T07:49:19.702Z,80.27
2023-04-02T07:51:46.050Z,78.95
2023-04-02T07:54:12.991Z,78.66
2023-04-02T07:56:39.628Z,78.85
2023-04-02T07:59:05.997Z,79.51
2023-04-02T08:01:35.502Z,79.82
2023-04-02T08:04:04.322Z,80.40
2023-04-02T08:06:31.340Z,80.81
2023-04-02T08:08:58.966Z,80.78
2023-04-02T08:11:25.400Z,82.75
2023-04-02T08:13:52.120Z,83.32
2023-04-02T08:16:18.612Z,83.63
2023-04-02T08:18:47.414Z,84.01
2023-04-02T08:21:16.229Z,84.58
2023-04-02T08:23:43.413Z,84.97
2023-04-02T08:26:09.839Z,85.45
2023-04-02T08:28:36.289Z,85.40
2023-04-02T08:31:04.548Z,85.08
2023-04-02T08:33:31.325Z,85.25
2023-04-02T08:35:57.674Z,84.15
2023-04-02T08:38:24.110Z,83.32
2023-04-02T08:40:54.205Z,83.15
2023-04-02T08:43:40.726Z,83.84
2023-04-02T08:46:16.346Z,82.98
2023-04-02T08:48:51.366Z,82.85
2023-04-02T08:51:30.731Z,83.86
2023-04-02T08:54:05.030Z,84.06
2023-04-02T08:56:43.341Z,84.56
2023-04-02T08:59:24.439Z,83.06
2023-04-02T09:02:15.745Z,82.48
2023-04-02T09:04:42.458Z,83.69
2023-04-02T09:07:14.346Z,83.11
2023-04-02T09:09:41.136Z,82.95
2023-04-02T09:12:18.294Z,84.07
2023-04-02T09:15:24.543Z,82.50
2023-04-02T09:18:00.877Z,83.03
2023-04-02T09:20:28.500Z,82.96
2023-04-02T09:22:56.696Z,83.56
2023-04-02T09:25:29.662Z,83.41
2023-04-02T09:28:00.320Z,83.11
2023-04-02T09:30:29.830Z,83.40
2023-04-02T09:33:07.528Z,84.42
2023-04-02T09:35:54.954Z,83.45
2023-04-02T09:38:30.693Z,82.12
2023-04-02T09:41:06.466Z,82.68
2023-04-02T09:43:35.718Z,83.47
2023-04-02T09:46:24.643Z,81.84
2023-04-02T09:48:58.205Z,80.75
2023-04-02T09:51:31.670Z,81.46
2023-04-02T09:54:03.795Z,81.42
2023-04-02T09:56:32.254Z,81.35
2023-04-02T09:59:07.531Z,81.99
2023-04-02T10:01:37.445Z,81.95
2023-04-02T10:04:05.989Z,81.54
2023-04-02T10:06:34.052Z,81.31
2023-04-02T10:09:39.752Z,80.86
2023-04-02T10:12:12.301Z,81.16
2023-04-02T10:14:45.968Z,80.77
2023-04-02T10:17:15.813Z,81.41
2023-04-02T10:19:48.257Z,81.62
2023-04-02T10:22:22.926Z,81.11
2023-04-02T10:24:50.784Z,80.36
2023-04-02T10:27:43.058Z,81.56
2023-04-02T10:30:19.037Z,81.09
2023-04-02T10:33:03.354Z,80.90
2023-04-02T10:35:47.134Z,81.57
2023-04-02T10:38:48.883Z,81.24
2023-04-02T10:41:49.026Z,81.03
2023-04-02T10:44:35.431Z,80.25
2023-04-02T10:47:11.408Z,80.26
2023-04-02T10:50:04.906Z,80.38
2023-04-02T10:52:39.324Z,80.72
2023-04-02T10:55:18.130Z,80.91
2023-04-02T10:57:45.948Z,80.86
2023-04-02T11:00:18.118Z,82.41
2023-04-02T11:02:50.700Z,81.13
2023-04-02T11:05:23.514Z,81.01
2023-04-02T11:08:04.068Z,81.30
2023-04-02T11:10:34.684Z,80.06
2023-04-02T11:13:11.368Z,80.92
2023-04-02T11:15:38.153Z,80.31
2023-04-02T11:18:04.534Z,82.45
2023-04-02T11:20:54.689Z,80.72
2023-04-02T11:23:21.533Z,80.78
2023-04-02T11:25:48.450Z,81.25
2023-04-02T11:28:30.371Z,79.72
2023-04-02T11:30:57.589Z,80.61
2023-04-02T11:33:37.377Z,77.40
2023-04-02T11:36:44.052Z,79.37
2023-04-02T11:39:17.503Z,78.21
2023-04-02T11:42:00.997Z,77.44
2023-04-02T11:44:27.356Z,77.19
2023-04-02T11:47:22.411Z,77.99
2023-04-02T11:49:54.623Z,76.32
2023-04-02T11:52:22.870Z,77.03
2023-04-02T11:55:19.580Z,76.49
2023-04-02T11:58:01.658Z,75.73
2023-04-02T12:00:57.331Z,76.55
2023-04-02T12:03:35.966Z,76.32
2023-04-02T12:06:10.644Z,76.39
2023-04-02T12:08:58.307Z,76.64
2023-04-02T12:11:37.481Z,77.23
2023-04-02T12:14:45.847Z,76.44
2023-04-02T12:17:26.970Z,75.87
2023-04-02T12:20:20.250Z,76.90
2023-04-02T12:22:51.297Z,76.31
2023-04-02T12:25:29.306Z,76.84
2023-04-02T12:28:10.679Z,76.85
2023-04-02T12:30:38.628Z,76.15
2023-04-02T12:33:28.268Z,76.64
2023-04-02T12:35:58.228Z,75.10
2023-04-02T12:38:30.863Z,75.46
2023-04-02T12:40:57.163Z,75.38
2023-04-02T12:43:28.695Z,75.73
2023-04-02T12:45:58.827Z,76.55
2023-04-02T12:48:27.046Z,76.51
2023-04-02T12:50:53.968Z,76.97
2023-04-02T12:53:23.340Z,76.21
2023-04-02T12:55:51.988Z,76.55
2023-04-02T12:58:26.674Z,76.51
2023-04-02T13:01:08.341Z,76.18
2023-04-02T13:03:34.650Z,77.46
2023-04-02T13:06:01.146Z,77.00
2023-04-02T13:08:37.762Z,76.65
2023-04-02T13:11:08.419Z,76.75
2023-04-02T13:13:40.523Z,76.15
2023-04-02T13:16:24.764Z,76.52
2023-04-02T13:18:51.381Z,77.85
2023-04-02T13:21:20.735Z,77.26
2023-04-02T13:23:47.830Z,76.83
2023-04-02T13:26:22.227Z,75.73
2023-04-02T13:28:57.362Z,75.64
2023-04-02T13:31:23.720Z,75.73
2023-04-02T13:33:50.119Z,75.50
2023-04-02T13:36:16.410Z,76.17
2023-04-02T13:38:42.737Z,74.08
2023-04-02T13:41:27.670Z,74.20
2023-04-02T13:43:55.456Z,73.80
2023-04-02T13:46:24.474Z,74.31
2023-04-02T13:48:51.991Z,74.17
2023-04-02T13:51:20.476Z,73.70
2023-04-02T13:53:51.046Z,73.12
2023-04-02T13:56:17.368Z,71.77
2023-04-02T13:58:43.713Z,72.04
2023-04-02T14:01:10.154Z,71.77
2023-04-02T14:03:37.604Z,72.81
2023-04-02T14:06:35.704Z,71.83
2023-04-02T14:09:27.050Z,72.41
2023-04-02T14:12:05.944Z,73.97
2023-04-02T14:15:01.603Z,72.85
2023-04-02T14:17:47.506Z,72.46
2023-04-02T14:20:17.214Z,73.08
2023-04-02T14:23:06.926Z,73.20
2023-04-02T14:25:45.210Z,72.27
2023-04-02T14:28:37.895Z,72.42
2023-04-02T14:31:15.565Z,73.35
2023-04-02T14:34:20.456Z,72.05
2023-04-02T14:37:05.254Z,72.88
2023-04-02T14:39:42.493Z,71.70
2023-04-02T14:42:47.359Z,72.50
2023-04-02T14:45:43.820Z,73.04
2023-04-02T14:48:26.544Z,72.36
2023-04-02T14:51:09.984Z,71.34
2023-04-02T14:53:58.178Z,71.76
2023-04-02T14:56:25.790Z,71.38
2023-04-02T14:59:13.342Z,70.93
2023-04-02T15:01:43.713Z,71.02
2023-04-02T15:04:20.374Z,71.92
2023-04-02T15:06:52.622Z,71.59
2023-04-02T15:09:25.216Z,70.97
2023-04-02T15:11:54.727Z,70.75
2023-04-02T15:14:31.415Z,70.47
2023-04-02T15:16:57.734Z,70.55
2023-04-02T15:19:24.044Z,70.37
2023-04-02T15:22:09.789Z,70.43
2023-04-02T15:24:39.197Z,71.55
2023-04-02T15:27:28.600Z,70.78
2023-04-02T15:30:20.060Z,69.81
2023-04-02T15:32:47.072Z,70.37
2023-04-02T15:35:32.330Z,70.79
2023-04-02T15:38:22.694Z,70.24
2023-04-02T15:40:56.836Z,70.54
2023-04-02T15:43:47.775Z,69.84
2023-04-02T15:46:41.986Z,70.66
2023-04-02T15:49:27.105Z,70.49
2023-04-02T15:52:09.698Z,70.15
2023-04-02T15:54:48.011Z,70.77
2023-04-02T15:57:59.192Z,68.73
2023-04-02T16:00:30.415Z,69.39
2023-04-02T16:03:14.393Z,68.30
2023-04-02T16:06:05.698Z,68.48
2023-04-02T16:08:45.209Z,69.15
2023-04-02T16:11:14.067Z,68.33
2023-04-02T16:13:42.542Z,67.46
2023-04-02T16:16:38.689Z,68.56
2023-04-02T16:19:26.015Z,68.13
2023-04-02T16:22:02.591Z,68.12
2023-04-02T16:24:28.992Z,66.34
2023-04-02T16:27:32.569Z,66.36
2023-04-02T16:30:38.240Z,67.71
2023-04-02T16:33:23.340Z,67.90
2023-04-02T16:35:57.672Z,68.42
2023-04-02T16:38:35.987Z,66.08
2023-04-02T16:41:27.410Z,67.38
2023-04-02T16:44:21.991Z,66.18
2023-04-02T16:47:01.417Z,66.34
2023-04-02T16:50:03.030Z,66.35
2023-04-02T16:52:35.275Z,66.72
2023-04-02T16:55:34.385Z,66.55
2023-04-02T16:58:39.077Z,66.82
2023-04-02T17:01:27.046Z,67.75
2023-04-02T17:04:02.013Z,66.06
2023-04-02T17:06:35.274Z,66.13
2023-04-02T17:09:10.584Z,66.34
2023-04-02T17:12:03.136Z,65.42
2023-04-02T17:14:44.478Z,65.91
2023-04-02T17:17:14.697Z,66.10
2023-04-02T17:19:43.604Z,65.89
2023-04-02T17:22:16.563Z,66.03
2023-04-02T17:24:47.646Z,65.97
2023-04-02T17:27:35.436Z,65.28
2023-04-02T17:30:15.427Z,64.71
2023-04-02T17:32:42.549Z,66.11
2023-04-02T17:35:18.700Z,63.82
2023-04-02T17:38:03.086Z,65.42
2023-04-02T17:40:46.517Z,65.95
2023-04-02T17:43:29.115Z,64.77
2023-04-02T17:45:59.026Z,64.20
2023-04-02T17:48:41.167Z,65.24
2023-04-02T17:51:48.448Z,63.99
2023-04-02T17:54:27.642Z,63.80
2023-04-02T17:57:13.245Z,65.91
2023-04-02T17:59:45.690Z,65.01
2023-04-02T18:02:33.853Z,65.19
2023-04-02T18:05:12.554Z,65.19
2023-04-02T18:07:57.580Z,65.58
2023-04-02T18:10:31.386Z,64.08
2023-04-02T18:13:07.291Z,63.82
2023-04-02T18:15:47.531Z,63.97
2023-04-02T18:18:35.749Z,64.12
2023-04-02T18:21:08.104Z,64.18
2023-04-02T18:23:54.168Z,63.70
2023-04-02T18:26:21.180Z,63.17
2023-04-02T18:29:14.056Z,63.53
2023-04-02T18:32:18.004Z,63.28
2023-04-02T18:34:59.537Z,63.59
2023-04-02T18:37:41.639Z,63.60
2023-04-02T18:40:37.674Z,63.38
2023-04-02T18:43:40.845Z,63.81
2023-04-02T18:46:31.227Z,63.80
2023-04-02T18:49:17.985Z,62.35
2023-04-02T18:51:44.280Z,62.99
2023-04-02T18:54:38.330Z,63.34
2023-04-02T18:57:15.520Z,63.68
2023-04-02T18:59:51.046Z,64.01
2023-04-02T19:02:43.052Z,62.20
2023-04-02T19:05:47.035Z,63.05
2023-04-02T19:08:22.215Z,62.78
2023-04-02T19:10:54.862Z,63.80
2023-04-02T19:13:21.464Z,63.04
2023-04-02T19:16:06.518Z,63.08
2023-04-02T19:18:55.731Z,62.40
2023-04-02T19:21:25.913Z,63.06
2023-04-02T19:24:29.691Z,64.22
2023-04-02T19:27:40.829Z,63.71
2023-04-02T19:30:20.033Z,64.11
2023-04-02T19:33:04.865Z,63.94
2023-04-02T19:35:46.465Z,63.80
2023-04-02T19:38:12.803Z,63.65
2023-04-02T19:40:46.125Z,63.81
2023-04-02T19:43:12.456Z,63.58
2023-04-02T19:45:44.193Z,62.70
2023-04-02T19:48:15.712Z,63.08
2023-04-02T19:50:43.233Z,63.99
2023-04-02T19:53:09.627Z,63.74
2023-04-02T19:55:36.405Z,63.13
2023-04-02T19:58:17.244Z,62.56
2023-04-02T20:00:45.496Z,62.21
2023-04-02T20:03:11.848Z,62.13
2023-04-02T20:05:38.339Z,63.65
2023-04-02T20:08:05.018Z,61.90
2023-04-02T20:10:31.332Z,62.93
2023-04-02T20:12:57.657Z,62.34
2023-04-02T20:15:24.330Z,62.80
2023-04-02T20:17:50.950Z,63.67
2023-04-02T20:20:17.640Z,62.13
2023-04-02T20:22:44.022Z,61.54
2023-04-02T20:25:10.882Z,62.83
2023-04-02T20:27:37.266Z,62.51
2023-04-02T20:30:04.277Z,62.27
2023-04-02T20:32:30.560Z,63.26
2023-04-02T20:34:56.888Z,62.81
2023-04-02T20:37:23.289Z,62.74
2023-04-02T20:39:49.832Z,64.00
2023-04-02T20:42:16.597Z,63.81
2023-04-02T20:44:42.955Z,63.60
2023-04-02T20:47:09.355Z,62.97
2023-04-02T20:49:35.717Z,62.38
2023-04-02T20:52:02.155Z,63.71
2023-04-02T20:54:28.491Z,62.55
2023-04-02T20:56:54.851Z,62.52
2023-04-02T20:59:21.196Z,62.76
2023-04-02T21:01:47.624Z,62.51
2023-04-02T21:04:14.149Z,63.13
2023-04-02T21:06:41.230Z,63.66
2023-04-02T21:09:14.478Z,62.84
2023-04-02T21:11:41.002Z,63.54
2023-04-02T21:14:07.516Z,63.42
2023-04-02T21:16:34.776Z,63.79
2023-04-02T21:19:04.266Z,63.21
2023-04-02T21:21:30.788Z,64.48
2023-04-02T21:24:02.767Z,62.30
2023-04-02T21:26:33.333Z,62.46
2023-04-02T21:29:01.261Z,62.15
2023-04-02T21:31:30.187Z,62.68
2023-04-02T21:33:58.357Z,62.63
2023-04-02T21:36:27.984Z,63.39
2023-04-02T21:39:04.743Z,63.74
2023-04-02T21:41:33.487Z,64.56
2023-04-02T21:44:03.826Z,63.62
2023-04-02T21:46:33.852Z,63.80
2023-04-02T21:49:00.892Z,64.00
2023-04-02T21:51:32.675Z,64.25
2023-04-02T21:53:59.704Z,65.03
2023-04-02T21:56:27.689Z,63.89
2023-04-02T21:58:55.227Z,64.44
2023-04-02T22:01:27.320Z,64.32
2023-04-02T22:03:58.903Z,64.37
2023-04-02T22:06:27.605Z,63.62
2023-04-02T22:09:01.858Z,64.05
2023-04-02T22:11:31.128Z,64.17
2023-04-02T22:13:57.938Z,63.55
2023-04-02T22:16:27.400Z,64.92
2023-04-02T22:18:55.745Z,63.84
2023-04-02T22:21:22.761Z,64.14
2023-04-02T22:23:49.620Z,64.49
2023-04-02T22:26:17.467Z,64.83
2023-04-02T22:28:43.800Z,64.70
2023-04-02T22:31:16.033Z,65.46
2023-04-02T22:33:43.707Z,64.43
2023-04-02T22:36:10.940Z,63.78
2023-04-02T22:38:38.046Z,64.72
2023-04-02T22:41:10.207Z,65.75
2023-04-02T22:43:37.292Z,64.25
2023-04-02T22:46:04.657Z,63.88
2023-04-02T22:48:31.296Z,64.26
2023-04-02T22:50:57.617Z,63.37
2023-04-02T22:53:24.312Z,64.00
2023-04-02T22:55:52.203Z,64.03
2023-04-02T22:58:19.744Z,64.68
2023-04-02T23:00:46.816Z,66.01
2023-04-02T23:03:13.370Z,65.15
2023-04-02T23:05:40.293Z,65.11
2023-04-02T23:08:06.946Z,65.98
2023-04-02T23:10:33.323Z,65.09
2023-04-02T23:12:59.627Z,66.63
2023-04-02T23:15:25.968Z,65.84
2023-04-02T23:17:52.326Z,65.83
2023-04-02T23:20:18.806Z,66.51
2023-04-02T23:22:45.369Z,66.32
2023-04-02T23:25:11.660Z,67.18
2023-04-02T23:27:38.059Z,68.08
2023-04-02T23:30:06.375Z,67.29
2023-04-02T23:32:33.298Z,67.61
2023-04-02T23:34:59.552Z,67.00
2023-04-02T23:37:25.787Z,68.09
2023-04-02T23:39:52.071Z,68.21
2023-04-02T23:42:18.294Z,67.34
2023-04-02T23:44:44.540Z,66.06
2023-04-02T23:47:10.960Z,67.66
2023-04-02T23:49:37.303Z,67.75
2023-04-02T23:52:03.714Z,67.92
2023-04-02T23:54:30.153Z,67.50
2023-04-02T23:56:56.461Z,66.93
2023-04-02T23:59:22.797Z,66.86
